sensor_id;sensor_type;location;lat;lon;timestamp;P1;durP1;ratioP1;P2;durP2;ratioP2
55037;SDS011;40937;53.594;10.034;2023-12-07T00:01:13;171.05;;;66.95;;
55037;SDS011;40937;53.594;10.034;2023-12-07T00:03:40;170.95;;;67.05;;
55037;SDS011;40937;53.594;10.034;2023-12-07T00:06:09;180.52;;;67.13;;
55037;SDS011;40937;53.594;10.034;2023-12-07T00:08:36;177.65;;;69.05;;
55037;SDS011;40937;53.594;10.034;2023-12-07T00:11:03;179.05;;;72.15;;
55037;SDS011;40937;53.594;10.034;2023-12-07T00:13:31;167.70;;;69.13;;
55037;SDS011;40937;53.594;10.034;2023-12-07T00:15:58;170.38;;;66.32;;
55037;SDS011;40937;53.594;10.034;2023-12-07T00:18:25;187.85;;;71.80;;
55037;SDS011;40937;53.594;10.034;2023-12-07T00:20:53;178.93;;;69.45;;
55037;SDS011;40937;53.594;10.034;2023-12-07T00:23:20;170.57;;;69.13;;
55037;SDS011;40937;53.594;10.034;2023-12-07T00:25:47;172.80;;;69.13;;
55037;SDS011;40937;53.594;10.034;2023-12-07T00:28:15;163.27;;;66.47;;
55037;SDS011;40937;53.594;10.034;2023-12-07T00:30:42;173.23;;;66.82;;
55037;SDS011;40937;53.594;10.034;2023-12-07T00:33:09;175.80;;;68.18;;
55037;SDS011;40937;53.594;10.034;2023-12-07T00:35:37;166.45;;;67.25;;
55037;SDS011;40937;53.594;10.034;2023-12-07T00:38:04;163.30;;;65.75;;
55037;SDS011;40937;53.594;10.034;2023-12-07T00:40:35;179.32;;;70.18;;
55037;SDS011;40937;53.594;10.034;2023-12-07T00:43:04;156.05;;;66.88;;
55037;SDS011;40937;53.594;10.034;2023-12-07T00:45:31;180.82;;;67.53;;
55037;SDS011;40937;53.594;10.034;2023-12-07T00:47:58;163.82;;;68.45;;
55037;SDS011;40937;53.594;10.034;2023-12-07T00:50:26;163.02;;;68.72;;
55037;SDS011;40937;53.594;10.034;2023-12-07T00:52:53;153.40;;;67.13;;
55037;SDS011;40937;53.594;10.034;2023-12-07T00:55:20;155.15;;;65.47;;
55037;SDS011;40937;53.594;10.034;2023-12-07T00:57:48;152.23;;;67.68;;
55037;SDS011;40937;53.594;10.034;2023-12-07T01:00:16;159.05;;;68.38;;
55037;SDS011;40937;53.594;10.034;2023-12-07T01:02:44;153.98;;;65.25;;
55037;SDS011;40937;53.594;10.034;2023-12-07T01:05:11;159.63;;;70.03;;
55037;SDS011;40937;53.594;10.034;2023-12-07T01:07:38;161.15;;;68.30;;
55037;SDS011;40937;53.594;10.034;2023-12-07T01:10:06;149.30;;;65.45;;
55037;SDS011;40937;53.594;10.034;2023-12-07T01:12:34;151.02;;;66.15;;
55037;SDS011;40937;53.594;10.034;2023-12-07T01:15:04;152.05;;;64.40;;
55037;SDS011;40937;53.594;10.034;2023-12-07T01:17:32;145.60;;;64.22;;
55037;SDS011;40937;53.594;10.034;2023-12-07T01:19:59;159.45;;;66.85;;
55037;SDS011;40937;53.594;10.034;2023-12-07T01:22:26;150.77;;;66.45;;
55037;SDS011;40937;53.594;10.034;2023-12-07T01:24:54;154.27;;;64.85;;
55037;SDS011;40937;53.594;10.034;2023-12-07T01:27:21;140.70;;;64.03;;
55037;SDS011;40937;53.594;10.034;2023-12-07T01:29:48;141.82;;;63.03;;
55037;SDS011;40937;53.594;10.034;2023-12-07T01:32:17;135.48;;;63.42;;
55037;SDS011;40937;53.594;10.034;2023-12-07T01:34:44;144.88;;;66.20;;
55037;SDS011;40937;53.594;10.034;2023-12-07T01:37:11;134.00;;;61.95;;
55037;SDS011;40937;53.594;10.034;2023-12-07T01:39:39;134.82;;;62.03;;
55037;SDS011;40937;53.594;10.034;2023-12-07T01:42:08;149.10;;;65.38;;
55037;SDS011;40937;53.594;10.034;2023-12-07T01:44:37;130.68;;;62.80;;
55037;SDS011;40937;53.594;10.034;2023-12-07T01:47:05;138.88;;;60.42;;
55037;SDS011;40937;53.594;10.034;2023-12-07T01:49:35;143.48;;;63.95;;
55037;SDS011;40937;53.594;10.034;2023-12-07T01:52:02;127.55;;;62.33;;
55037;SDS011;40937;53.594;10.034;2023-12-07T01:54:30;134.55;;;62.70;;
55037;SDS011;40937;53.594;10.034;2023-12-07T01:56:58;111.95;;;61.28;;
55037;SDS011;40937;53.594;10.034;2023-12-07T01:59:25;137.55;;;64.32;;
55037;SDS011;40937;53.594;10.034;2023-12-07T02:01:52;136.60;;;65.05;;
55037;SDS011;40937;53.594;10.034;2023-12-07T02:04:19;128.52;;;62.17;;
55037;SDS011;40937;53.594;10.034;2023-12-07T02:06:48;127.25;;;61.20;;
55037;SDS011;40937;53.594;10.034;2023-12-07T02:09:15;118.75;;;60.33;;
55037;SDS011;40937;53.594;10.034;2023-12-07T02:11:43;119.68;;;60.20;;
55037;SDS011;40937;53.594;10.034;2023-12-07T02:14:11;125.05;;;62.03;;
55037;SDS011;40937;53.594;10.034;2023-12-07T02:16:39;127.40;;;60.97;;
55037;SDS011;40937;53.594;10.034;2023-12-07T02:19:13;131.13;;;61.45;;
55037;SDS011;40937;53.594;10.034;2023-12-07T02:21:50;141.43;;;65.05;;
55037;SDS011;40937;53.594;10.034;2023-12-07T02:24:23;147.45;;;63.83;;
55037;SDS011;40937;53.594;10.034;2023-12-07T02:26:55;134.73;;;63.17;;
55037;SDS011;40937;53.594;10.034;2023-12-07T02:29:22;136.10;;;61.15;;
55037;SDS011;40937;53.594;10.034;2023-12-07T02:31:49;153.60;;;66.18;;
55037;SDS011;40937;53.594;10.034;2023-12-07T02:34:17;151.55;;;63.78;;
55037;SDS011;40937;53.594;10.034;2023-12-07T02:36:45;152.43;;;65.32;;
55037;SDS011;40937;53.594;10.034;2023-12-07T02:39:14;149.65;;;65.40;;
55037;SDS011;40937;53.594;10.034;2023-12-07T02:41:41;137.35;;;62.33;;
55037;SDS011;40937;53.594;10.034;2023-12-07T02:44:14;151.43;;;63.58;;
55037;SDS011;40937;53.594;10.034;2023-12-07T02:46:41;152.00;;;63.25;;
55037;SDS011;40937;53.594;10.034;2023-12-07T02:49:08;162.77;;;64.35;;
55037;SDS011;40937;53.594;10.034;2023-12-07T02:51:36;143.68;;;63.60;;
55037;SDS011;40937;53.594;10.034;2023-12-07T02:54:03;153.35;;;63.45;;
55037;SDS011;40937;53.594;10.034;2023-12-07T02:56:30;133.77;;;60.15;;
55037;SDS011;40937;53.594;10.034;2023-12-07T02:58:57;142.00;;;62.35;;
55037;SDS011;40937;53.594;10.034;2023-12-07T03:01:26;146.93;;;63.88;;
55037;SDS011;40937;53.594;10.034;2023-12-07T03:03:53;141.32;;;62.83;;
55037;SDS011;40937;53.594;10.034;2023-12-07T03:06:20;146.77;;;61.35;;
55037;SDS011;40937;53.594;10.034;2023-12-07T03:08:47;127.65;;;61.45;;
55037;SDS011;40937;53.594;10.034;2023-12-07T03:11:14;109.85;;;58.53;;
55037;SDS011;40937;53.594;10.034;2023-12-07T03:13:41;122.32;;;60.30;;
55037;SDS011;40937;53.594;10.034;2023-12-07T03:16:09;122.97;;;59.03;;
55037;SDS011;40937;53.594;10.034;2023-12-07T03:18:37;127.50;;;59.83;;
55037;SDS011;40937;53.594;10.034;2023-12-07T03:21:04;117.28;;;62.38;;
55037;SDS011;40937;53.594;10.034;2023-12-07T03:23:32;121.00;;;60.08;;
55037;SDS011;40937;53.594;10.034;2023-12-07T03:25:59;131.38;;;61.28;;
55037;SDS011;40937;53.594;10.034;2023-12-07T03:28:26;116.00;;;58.28;;
55037;SDS011;40937;53.594;10.034;2023-12-07T03:30:53;112.65;;;57.22;;
55037;SDS011;40937;53.594;10.034;2023-12-07T03:33:20;104.75;;;58.92;;
55037;SDS011;40937;53.594;10.034;2023-12-07T03:35:49;112.60;;;58.42;;
55037;SDS011;40937;53.594;10.034;2023-12-07T03:38:16;110.38;;;57.10;;
55037;SDS011;40937;53.594;10.034;2023-12-07T03:40:43;116.38;;;57.45;;
55037;SDS011;40937;53.594;10.034;2023-12-07T03:43:13;109.18;;;58.28;;
55037;SDS011;40937;53.594;10.034;2023-12-07T03:45:40;104.05;;;58.15;;
55037;SDS011;40937;53.594;10.034;2023-12-07T03:48:07;105.05;;;57.92;;
55037;SDS011;40937;53.594;10.034;2023-12-07T03:50:35;94.10;;;54.28;;
55037;SDS011;40937;53.594;10.034;2023-12-07T03:53:03;102.03;;;55.65;;
55037;SDS011;40937;53.594;10.034;2023-12-07T03:55:30;94.95;;;56.17;;
55037;SDS011;40937;53.594;10.034;2023-12-07T03:57:57;103.53;;;60.65;;
55037;SDS011;40937;53.594;10.034;2023-12-07T04:00:23;109.00;;;59.78;;
55037;SDS011;40937;53.594;10.034;2023-12-07T04:02:51;103.13;;;60.47;;
55037;SDS011;40937;53.594;10.034;2023-12-07T04:05:18;89.45;;;57.50;;
55037;SDS011;40937;53.594;10.034;2023-12-07T04:07:45;97.57;;;60.40;;
55037;SDS011;40937;53.594;10.034;2023-12-07T04:10:14;87.53;;;58.70;;
55037;SDS011;40937;53.594;10.034;2023-12-07T04:12:41;101.75;;;58.13;;
55037;SDS011;40937;53.594;10.034;2023-12-07T04:15:08;104.80;;;58.67;;
55037;SDS011;40937;53.594;10.034;2023-12-07T04:17:36;90.78;;;55.67;;
55037;SDS011;40937;53.594;10.034;2023-12-07T04:20:04;93.32;;;56.88;;
55037;SDS011;40937;53.594;10.034;2023-12-07T04:22:31;101.35;;;56.63;;
55037;SDS011;40937;53.594;10.034;2023-12-07T04:24:58;91.65;;;55.45;;
55037;SDS011;40937;53.594;10.034;2023-12-07T04:27:27;91.93;;;57.03;;
55037;SDS011;40937;53.594;10.034;2023-12-07T04:29:54;83.80;;;55.53;;
55037;SDS011;40937;53.594;10.034;2023-12-07T04:32:22;83.32;;;53.75;;
55037;SDS011;40937;53.594;10.034;2023-12-07T04:34:49;90.57;;;55.03;;
55037;SDS011;40937;53.594;10.034;2023-12-07T04:37:16;81.93;;;54.10;;
55037;SDS011;40937;53.594;10.034;2023-12-07T04:39:44;84.68;;;56.78;;
55037;SDS011;40937;53.594;10.034;2023-12-07T04:42:11;99.05;;;56.83;;
55037;SDS011;40937;53.594;10.034;2023-12-07T04:44:39;88.30;;;57.95;;
55037;SDS011;40937;53.594;10.034;2023-12-07T04:47:06;87.18;;;55.10;;
55037;SDS011;40937;53.594;10.034;2023-12-07T04:49:34;87.53;;;57.53;;
55037;SDS011;40937;53.594;10.034;2023-12-07T04:52:01;76.35;;;55.72;;
55037;SDS011;40937;53.594;10.034;2023-12-07T04:54:28;81.05;;;54.58;;
55037;SDS011;40937;53.594;10.034;2023-12-07T04:56:55;83.47;;;55.88;;
55037;SDS011;40937;53.594;10.034;2023-12-07T04:59:22;81.43;;;54.08;;
55037;SDS011;40937;53.594;10.034;2023-12-07T05:01:51;79.78;;;54.50;;
55037;SDS011;40937;53.594;10.034;2023-12-07T05:04:19;85.45;;;55.25;;
55037;SDS011;40937;53.594;10.034;2023-12-07T05:06:46;85.03;;;52.30;;
55037;SDS011;40937;53.594;10.034;2023-12-07T05:09:13;85.10;;;54.30;;
55037;SDS011;40937;53.594;10.034;2023-12-07T05:11:41;81.82;;;55.75;;
55037;SDS011;40937;53.594;10.034;2023-12-07T05:14:10;75.68;;;54.90;;
55037;SDS011;40937;53.594;10.034;2023-12-07T05:16:38;71.38;;;52.65;;
55037;SDS011;40937;53.594;10.034;2023-12-07T05:19:06;83.50;;;54.67;;
55037;SDS011;40937;53.594;10.034;2023-12-07T05:21:34;75.03;;;55.38;;
55037;SDS011;40937;53.594;10.034;2023-12-07T05:24:01;74.88;;;53.42;;
55037;SDS011;40937;53.594;10.034;2023-12-07T05:26:29;82.78;;;53.05;;
55037;SDS011;40937;53.594;10.034;2023-12-07T05:28:58;82.28;;;52.47;;
55037;SDS011;40937;53.594;10.034;2023-12-07T05:31:25;82.47;;;53.72;;
55037;SDS011;40937;53.594;10.034;2023-12-07T05:33:53;77.32;;;52.42;;
55037;SDS011;40937;53.594;10.034;2023-12-07T05:36:21;79.82;;;50.33;;
55037;SDS011;40937;53.594;10.034;2023-12-07T05:38:48;68.82;;;49.70;;
55037;SDS011;40937;53.594;10.034;2023-12-07T05:41:16;67.38;;;50.08;;
55037;SDS011;40937;53.594;10.034;2023-12-07T05:43:43;75.97;;;50.20;;
55037;SDS011;40937;53.594;10.034;2023-12-07T05:46:10;61.20;;;48.70;;
55037;SDS011;40937;53.594;10.034;2023-12-07T05:48:37;61.55;;;46.88;;
55037;SDS011;40937;53.594;10.034;2023-12-07T05:51:05;72.40;;;48.40;;
55037;SDS011;40937;53.594;10.034;2023-12-07T05:53:34;62.22;;;48.97;;
55037;SDS011;40937;53.594;10.034;2023-12-07T05:56:01;57.85;;;47.10;;
55037;SDS011;40937;53.594;10.034;2023-12-07T05:58:28;60.78;;;45.58;;
55037;SDS011;40937;53.594;10.034;2023-12-07T06:00:55;60.40;;;46.67;;
55037;SDS011;40937;53.594;10.034;2023-12-07T06:03:22;62.75;;;46.75;;
55037;SDS011;40937;53.594;10.034;2023-12-07T06:05:51;64.18;;;47.63;;
55037;SDS011;40937;53.594;10.034;2023-12-07T06:08:18;67.88;;;46.65;;
55037;SDS011;40937;53.594;10.034;2023-12-07T06:10:47;60.20;;;45.70;;
55037;SDS011;40937;53.594;10.034;2023-12-07T06:13:14;57.47;;;44.78;;
55037;SDS011;40937;53.594;10.034;2023-12-07T06:15:41;62.38;;;47.38;;
55037;SDS011;40937;53.594;10.034;2023-12-07T06:18:09;61.38;;;45.50;;
55037;SDS011;40937;53.594;10.034;2023-12-07T06:20:36;67.53;;;45.60;;
55037;SDS011;40937;53.594;10.034;2023-12-07T06:23:03;65.05;;;45.65;;
55037;SDS011;40937;53.594;10.034;2023-12-07T06:25:32;62.20;;;45.33;;
55037;SDS011;40937;53.594;10.034;2023-12-07T06:28:00;65.45;;;46.40;;
55037;SDS011;40937;53.594;10.034;2023-12-07T06:30:28;58.55;;;45.60;;
55037;SDS011;40937;53.594;10.034;2023-12-07T06:32:55;56.58;;;46.05;;
55037;SDS011;40937;53.594;10.034;2023-12-07T06:35:22;58.65;;;45.72;;
55037;SDS011;40937;53.594;10.034;2023-12-07T06:37:50;65.35;;;46.95;;
55037;SDS011;40937;53.594;10.034;2023-12-07T06:40:17;61.78;;;44.40;;
55037;SDS011;40937;53.594;10.034;2023-12-07T06:42:46;61.88;;;46.05;;
55037;SDS011;40937;53.594;10.034;2023-12-07T06:45:15;68.65;;;48.70;;
55037;SDS011;40937;53.594;10.034;2023-12-07T06:47:42;62.97;;;47.05;;
55037;SDS011;40937;53.594;10.034;2023-12-07T06:50:09;57.55;;;44.03;;
55037;SDS011;40937;53.594;10.034;2023-12-07T06:52:37;57.72;;;44.72;;
55037;SDS011;40937;53.594;10.034;2023-12-07T06:55:04;61.72;;;45.58;;
55037;SDS011;40937;53.594;10.034;2023-12-07T06:57:32;57.45;;;47.22;;
55037;SDS011;40937;53.594;10.034;2023-12-07T06:59:59;60.63;;;44.70;;
55037;SDS011;40937;53.594;10.034;2023-12-07T07:02:32;59.35;;;44.85;;
55037;SDS011;40937;53.594;10.034;2023-12-07T07:05:00;59.38;;;46.97;;
55037;SDS011;40937;53.594;10.034;2023-12-07T07:07:27;58.20;;;45.50;;
55037;SDS011;40937;53.594;10.034;2023-12-07T07:09:56;59.60;;;46.50;;
55037;SDS011;40937;53.594;10.034;2023-12-07T07:12:24;54.75;;;45.50;;
55037;SDS011;40937;53.594;10.034;2023-12-07T07:14:53;64.18;;;46.70;;
55037;SDS011;40937;53.594;10.034;2023-12-07T07:17:20;63.05;;;47.40;;
55037;SDS011;40937;53.594;10.034;2023-12-07T07:19:48;61.97;;;45.90;;
55037;SDS011;40937;53.594;10.034;2023-12-07T07:22:15;60.83;;;44.65;;
55037;SDS011;40937;53.594;10.034;2023-12-07T07:24:43;56.83;;;45.20;;
55037;SDS011;40937;53.594;10.034;2023-12-07T07:27:10;68.00;;;47.95;;
55037;SDS011;40937;53.594;10.034;2023-12-07T07:29:37;57.65;;;44.30;;
55037;SDS011;40937;53.594;10.034;2023-12-07T07:32:04;58.55;;;43.65;;
55037;SDS011;40937;53.594;10.034;2023-12-07T07:34:32;59.50;;;45.22;;
55037;SDS011;40937;53.594;10.034;2023-12-07T07:37:00;63.03;;;46.20;;
55037;SDS011;40937;53.594;10.034;2023-12-07T07:39:28;61.83;;;47.67;;
55037;SDS011;40937;53.594;10.034;2023-12-07T07:41:55;61.15;;;45.83;;
55037;SDS011;40937;53.594;10.034;2023-12-07T07:44:23;57.28;;;45.88;;
55037;SDS011;40937;53.594;10.034;2023-12-07T07:46:50;60.72;;;48.80;;
55037;SDS011;40937;53.594;10.034;2023-12-07T07:49:17;60.55;;;47.65;;
55037;SDS011;40937;53.594;10.034;2023-12-07T07:51:44;62.55;;;49.03;;
55037;SDS011;40937;53.594;10.034;2023-12-07T07:54:13;58.75;;;46.50;;
55037;SDS011;40937;53.594;10.034;2023-12-07T07:56:40;63.15;;;47.55;;
55037;SDS011;40937;53.594;10.034;2023-12-07T07:59:09;56.95;;;46.40;;
55037;SDS011;40937;53.594;10.034;2023-12-07T08:01:37;59.97;;;47.65;;
55037;SDS011;40937;53.594;10.034;2023-12-07T08:04:04;65.40;;;49.90;;
55037;SDS011;40937;53.594;10.034;2023-12-07T08:06:31;70.18;;;47.60;;
55037;SDS011;40937;53.594;10.034;2023-12-07T08:08:58;60.33;;;46.22;;
55037;SDS011;40937;53.594;10.034;2023-12-07T08:11:27;55.42;;;46.67;;
55037;SDS011;40937;53.594;10.034;2023-12-07T08:13:54;58.63;;;47.03;;
55037;SDS011;40937;53.594;10.034;2023-12-07T08:16:21;63.85;;;47.17;;
55037;SDS011;40937;53.594;10.034;2023-12-07T08:18:49;56.58;;;47.40;;
55037;SDS011;40937;53.594;10.034;2023-12-07T08:21:20;55.85;;;47.65;;
55037;SDS011;40937;53.594;10.034;2023-12-07T08:23:47;52.05;;;44.17;;
55037;SDS011;40937;53.594;10.034;2023-12-07T08:26:14;65.25;;;47.25;;
55037;SDS011;40937;53.594;10.034;2023-12-07T08:28:43;55.25;;;48.70;;
55037;SDS011;40937;53.594;10.034;2023-12-07T08:31:10;65.20;;;47.33;;
55037;SDS011;40937;53.594;10.034;2023-12-07T08:33:37;70.25;;;47.75;;
55037;SDS011;40937;53.594;10.034;2023-12-07T08:36:06;59.20;;;46.80;;
55037;SDS011;40937;53.594;10.034;2023-12-07T08:38:34;67.97;;;49.80;;
55037;SDS011;40937;53.594;10.034;2023-12-07T08:41:01;56.55;;;46.22;;
55037;SDS011;40937;53.594;10.034;2023-12-07T08:43:28;57.70;;;45.45;;
55037;SDS011;40937;53.594;10.034;2023-12-07T08:45:57;60.15;;;46.78;;
55037;SDS011;40937;53.594;10.034;2023-12-07T08:48:25;62.10;;;46.58;;
55037;SDS011;40937;53.594;10.034;2023-12-07T08:50:52;58.40;;;47.97;;
55037;SDS011;40937;53.594;10.034;2023-12-07T08:53:19;60.30;;;46.92;;
55037;SDS011;40937;53.594;10.034;2023-12-07T08:55:46;62.30;;;48.83;;
55037;SDS011;40937;53.594;10.034;2023-12-07T08:58:13;65.43;;;47.60;;
55037;SDS011;40937;53.594;10.034;2023-12-07T09:00:40;63.55;;;48.55;;
55037;SDS011;40937;53.594;10.034;2023-12-07T09:03:09;57.75;;;48.45;;
55037;SDS011;40937;53.594;10.034;2023-12-07T09:05:36;58.97;;;48.90;;
55037;SDS011;40937;53.594;10.034;2023-12-07T09:08:04;73.22;;;48.97;;
55037;SDS011;40937;53.594;10.034;2023-12-07T09:10:32;60.42;;;49.03;;
55037;SDS011;40937;53.594;10.034;2023-12-07T09:12:59;67.85;;;50.85;;
55037;SDS011;40937;53.594;10.034;2023-12-07T09:15:27;60.60;;;50.03;;
55037;SDS011;40937;53.594;10.034;2023-12-07T09:17:54;75.05;;;51.33;;
55037;SDS011;40937;53.594;10.034;2023-12-07T09:20:25;61.83;;;50.95;;
55037;SDS011;40937;53.594;10.034;2023-12-07T09:22:54;57.40;;;49.03;;
55037;SDS011;40937;53.594;10.034;2023-12-07T09:25:22;64.75;;;50.33;;
55037;SDS011;40937;53.594;10.034;2023-12-07T09:27:53;60.72;;;48.33;;
55037;SDS011;40937;53.594;10.034;2023-12-07T09:30:20;78.15;;;50.92;;
55037;SDS011;40937;53.594;10.034;2023-12-07T09:32:50;66.80;;;51.45;;
55037;SDS011;40937;53.594;10.034;2023-12-07T09:35:17;60.17;;;49.35;;
55037;SDS011;40937;53.594;10.034;2023-12-07T09:37:47;64.00;;;50.50;;
55037;SDS011;40937;53.594;10.034;2023-12-07T09:40:15;68.65;;;51.63;;
55037;SDS011;40937;53.594;10.034;2023-12-07T09:42:44;69.32;;;53.17;;
55037;SDS011;40937;53.594;10.034;2023-12-07T09:45:11;68.97;;;50.42;;
55037;SDS011;40937;53.594;10.034;2023-12-07T09:47:39;67.15;;;50.83;;
55037;SDS011;40937;53.594;10.034;2023-12-07T09:50:08;74.18;;;50.97;;
55037;SDS011;40937;53.594;10.034;2023-12-07T09:52:36;61.83;;;49.78;;
55037;SDS011;40937;53.594;10.034;2023-12-07T09:55:05;66.70;;;52.63;;
55037;SDS011;40937;53.594;10.034;2023-12-07T09:57:33;71.10;;;53.78;;
55037;SDS011;40937;53.594;10.034;2023-12-07T10:00:00;73.80;;;54.22;;
55037;SDS011;40937;53.594;10.034;2023-12-07T10:02:35;75.25;;;56.90;;
55037;SDS011;40937;53.594;10.034;2023-12-07T10:05:04;78.97;;;55.85;;
55037;SDS011;40937;53.594;10.034;2023-12-07T10:07:32;73.75;;;54.70;;
55037;SDS011;40937;53.594;10.034;2023-12-07T10:10:02;83.68;;;55.22;;
55037;SDS011;40937;53.594;10.034;2023-12-07T10:12:31;65.25;;;52.80;;
55037;SDS011;40937;53.594;10.034;2023-12-07T10:14:59;59.72;;;52.75;;
55037;SDS011;40937;53.594;10.034;2023-12-07T10:17:43;71.97;;;52.78;;
55037;SDS011;40937;53.594;10.034;2023-12-07T10:20:14;62.45;;;50.67;;
55037;SDS011;40937;53.594;10.034;2023-12-07T10:22:45;65.10;;;51.00;;
55037;SDS011;40937;53.594;10.034;2023-12-07T10:25:12;63.38;;;50.92;;
55037;SDS011;40937;53.594;10.034;2023-12-07T10:27:42;60.42;;;50.13;;
55037;SDS011;40937;53.594;10.034;2023-12-07T10:30:09;58.97;;;51.40;;
55037;SDS011;40937;53.594;10.034;2023-12-07T10:32:38;57.95;;;51.78;;
55037;SDS011;40937;53.594;10.034;2023-12-07T10:35:06;61.70;;;51.28;;
55037;SDS011;40937;53.594;10.034;2023-12-07T10:37:34;64.60;;;52.25;;
55037;SDS011;40937;53.594;10.034;2023-12-07T10:40:02;66.50;;;57.33;;
55037;SDS011;40937;53.594;10.034;2023-12-07T10:42:32;70.80;;;55.83;;
55037;SDS011;40937;53.594;10.034;2023-12-07T10:45:05;76.75;;;59.08;;
55037;SDS011;40937;53.594;10.034;2023-12-07T10:47:37;75.00;;;59.75;;
55037;SDS011;40937;53.594;10.034;2023-12-07T10:50:05;73.82;;;59.03;;
55037;SDS011;40937;53.594;10.034;2023-12-07T10:55:12;79.07;;;58.63;;
55037;SDS011;40937;53.594;10.034;2023-12-07T10:57:48;82.40;;;58.50;;
55037;SDS011;40937;53.594;10.034;2023-12-07T11:00:19;79.57;;;59.38;;
55037;SDS011;40937;53.594;10.034;2023-12-07T11:02:49;75.00;;;60.10;;
55037;SDS011;40937;53.594;10.034;2023-12-07T11:05:17;70.75;;;57.60;;
55037;SDS011;40937;53.594;10.034;2023-12-07T11:07:47;66.93;;;59.13;;
55037;SDS011;40937;53.594;10.034;2023-12-07T11:10:21;70.47;;;56.17;;
55037;SDS011;40937;53.594;10.034;2023-12-07T11:12:57;61.30;;;54.58;;
55037;SDS011;40937;53.594;10.034;2023-12-07T11:15:35;63.97;;;53.55;;
55037;SDS011;40937;53.594;10.034;2023-12-07T11:18:03;66.07;;;51.72;;
55037;SDS011;40937;53.594;10.034;2023-12-07T11:20:39;60.45;;;52.40;;
55037;SDS011;40937;53.594;10.034;2023-12-07T11:23:08;54.45;;;48.67;;
55037;SDS011;40937;53.594;10.034;2023-12-07T11:25:35;55.88;;;48.92;;
55037;SDS011;40937;53.594;10.034;2023-12-07T11:28:03;56.50;;;50.55;;
55037;SDS011;40937;53.594;10.034;2023-12-07T11:30:31;59.13;;;50.28;;
55037;SDS011;40937;53.594;10.034;2023-12-07T11:33:01;63.10;;;48.22;;
55037;SDS011;40937;53.594;10.034;2023-12-07T11:35:30;52.97;;;47.35;;
55037;SDS011;40937;53.594;10.034;2023-12-07T11:38:04;55.17;;;49.25;;
55037;SDS011;40937;53.594;10.034;2023-12-07T11:40:34;58.90;;;50.17;;
55037;SDS011;40937;53.594;10.034;2023-12-07T11:43:02;55.45;;;49.40;;
55037;SDS011;40937;53.594;10.034;2023-12-07T11:45:40;53.03;;;46.92;;
55037;SDS011;40937;53.594;10.034;2023-12-07T11:48:11;56.55;;;48.53;;
55037;SDS011;40937;53.594;10.034;2023-12-07T11:50:57;60.20;;;50.83;;
55037;SDS011;40937;53.594;10.034;2023-12-07T11:53:25;57.30;;;47.17;;
55037;SDS011;40937;53.594;10.034;2023-12-07T11:55:55;57.83;;;49.42;;
55037;SDS011;40937;53.594;10.034;2023-12-07T11:58:23;55.67;;;47.67;;
55037;SDS011;40937;53.594;10.034;2023-12-07T12:00:51;63.97;;;47.35;;
55037;SDS011;40937;53.594;10.034;2023-12-07T12:03:20;53.60;;;46.38;;
55037;SDS011;40937;53.594;10.034;2023-12-07T12:05:47;51.63;;;46.15;;
55037;SDS011;40937;53.594;10.034;2023-12-07T12:08:15;53.47;;;46.75;;
55037;SDS011;40937;53.594;10.034;2023-12-07T12:10:43;57.72;;;46.33;;
55037;SDS011;40937;53.594;10.034;2023-12-07T12:13:10;71.57;;;56.33;;
55037;SDS011;40937;53.594;10.034;2023-12-07T12:15:38;54.65;;;48.80;;
55037;SDS011;40937;53.594;10.034;2023-12-07T12:18:06;50.63;;;45.28;;
55037;SDS011;40937;53.594;10.034;2023-12-07T12:20:35;51.78;;;45.70;;
55037;SDS011;40937;53.594;10.034;2023-12-07T12:23:02;51.15;;;45.50;;
55037;SDS011;40937;53.594;10.034;2023-12-07T12:25:30;50.75;;;45.22;;
55037;SDS011;40937;53.594;10.034;2023-12-07T12:27:58;51.63;;;44.17;;
55037;SDS011;40937;53.594;10.034;2023-12-07T12:30:27;49.17;;;43.97;;
55037;SDS011;40937;53.594;10.034;2023-12-07T12:32:55;48.55;;;43.35;;
55037;SDS011;40937;53.594;10.034;2023-12-07T12:35:23;52.33;;;46.55;;
55037;SDS011;40937;53.594;10.034;2023-12-07T12:37:52;50.42;;;44.95;;
55037;SDS011;40937;53.594;10.034;2023-12-07T12:40:21;53.08;;;47.30;;
55037;SDS011;40937;53.594;10.034;2023-12-07T12:42:49;53.08;;;47.25;;
55037;SDS011;40937;53.594;10.034;2023-12-07T12:45:18;56.53;;;50.28;;
55037;SDS011;40937;53.594;10.034;2023-12-07T12:47:46;56.67;;;50.30;;
55037;SDS011;40937;53.594;10.034;2023-12-07T12:53:02;60.25;;;49.25;;
55037;SDS011;40937;53.594;10.034;2023-12-07T12:55:30;70.03;;;55.00;;
55037;SDS011;40937;53.594;10.034;2023-12-07T12:57:59;75.82;;;57.08;;
55037;SDS011;40937;53.594;10.034;2023-12-07T13:00:26;78.45;;;57.42;;
55037;SDS011;40937;53.594;10.034;2023-12-07T13:02:54;69.38;;;55.83;;
55037;SDS011;40937;53.594;10.034;2023-12-07T13:05:21;63.03;;;53.40;;
55037;SDS011;40937;53.594;10.034;2023-12-07T13:07:49;71.30;;;54.75;;
55037;SDS011;40937;53.594;10.034;2023-12-07T13:10:18;69.85;;;53.15;;
55037;SDS011;40937;53.594;10.034;2023-12-07T13:12:46;64.85;;;52.05;;
55037;SDS011;40937;53.594;10.034;2023-12-07T13:15:13;66.35;;;53.65;;
55037;SDS011;40937;53.594;10.034;2023-12-07T13:17:41;64.82;;;51.20;;
55037;SDS011;40937;53.594;10.034;2023-12-07T13:20:09;59.85;;;52.15;;
55037;SDS011;40937;53.594;10.034;2023-12-07T13:22:37;62.30;;;52.75;;
55037;SDS011;40937;53.594;10.034;2023-12-07T13:25:05;65.18;;;50.90;;
55037;SDS011;40937;53.594;10.034;2023-12-07T13:27:35;68.03;;;54.53;;
55037;SDS011;40937;53.594;10.034;2023-12-07T13:30:03;60.65;;;53.08;;
55037;SDS011;40937;53.594;10.034;2023-12-07T13:32:32;60.65;;;52.53;;
55037;SDS011;40937;53.594;10.034;2023-12-07T13:35:02;67.68;;;52.95;;
55037;SDS011;40937;53.594;10.034;2023-12-07T13:37:30;60.28;;;53.10;;
55037;SDS011;40937;53.594;10.034;2023-12-07T13:39:58;64.85;;;51.78;;
55037;SDS011;40937;53.594;10.034;2023-12-07T13:42:26;61.70;;;54.88;;
55037;SDS011;40937;53.594;10.034;2023-12-07T13:44:56;61.33;;;53.03;;
55037;SDS011;40937;53.594;10.034;2023-12-07T13:47:23;66.00;;;52.88;;
55037;SDS011;40937;53.594;10.034;2023-12-07T13:49:54;64.47;;;55.20;;
55037;SDS011;40937;53.594;10.034;2023-12-07T13:52:22;60.60;;;54.20;;
55037;SDS011;40937;53.594;10.034;2023-12-07T13:54:50;61.72;;;54.97;;
55037;SDS011;40937;53.594;10.034;2023-12-07T13:57:17;68.85;;;54.15;;
55037;SDS011;40937;53.594;10.034;2023-12-07T13:59:45;61.47;;;54.60;;
55037;SDS011;40937;53.594;10.034;2023-12-07T14:02:13;68.00;;;55.53;;
55037;SDS011;40937;53.594;10.034;2023-12-07T14:04:40;79.85;;;55.50;;
55037;SDS011;40937;53.594;10.034;2023-12-07T14:07:08;68.50;;;55.85;;
55037;SDS011;40937;53.594;10.034;2023-12-07T14:09:37;73.32;;;56.83;;
55037;SDS011;40937;53.594;10.034;2023-12-07T14:12:04;71.35;;;57.08;;
55037;SDS011;40937;53.594;10.034;2023-12-07T14:14:32;60.45;;;52.65;;
55037;SDS011;40937;53.594;10.034;2023-12-07T14:16:59;78.13;;;56.70;;